Time;durP1;ratioP1;P1;durP2;ratioP2;P2;SDS_P1;SDS_P2;PMS_P1;PMS_P2;Temp;Humidity;BMP_temperature;BMP_pressure;BME280_temperature;BME280_humidity;BME280_pressure;Samples;Min_cycle;Max_cycle;Signal;HPM_P1;HPM_P2
2022/06/20 00:01:51;;;;;;;0.40;0.30;;;;;;;18.17;100.00;95477.56;5093332;28;20420;-59
2022/06/20 00:04:20;;;;;;;0.40;0.30;;;;;;;18.22;100.00;95479.31;5093319;28;20511;-59
2022/06/20 00:06:52;;;;;;;0.50;0.40;;;;;;;18.19;100.00;95474.59;5093130;28;20836;-59
2022/06/20 00:09:21;;;;;;;0.40;0.20;;;;;;;18.15;100.00;95471.72;5093198;28;20543;-59
2022/06/20 00:11:51;;;;;;;0.40;0.20;;;;;;;18.04;100.00;95465.06;5093521;28;20478;-59
2022/06/20 00:14:21;;;;;;;0.40;0.30;;;;;;;17.54;100.00;95400.28;5093068;28;20524;-59
2022/06/20 00:16:50;;;;;;;0.60;0.30;;;;;;;18.00;100.00;95466.81;5093084;28;20421;-59
2022/06/20 00:19:18;;;;;;;0.60;0.30;;;;;;;18.09;100.00;95464.91;5093025;28;20510;-59
2022/06/20 00:21:47;;;;;;;0.40;0.20;;;;;;;18.06;100.00;95460.19;5092881;28;20501;-59
2022/06/20 00:24:17;;;;;;;0.50;0.40;;;;;;;17.97;100.00;95466.63;5092322;28;20514;-59
2022/06/20 00:26:45;;;;;;;0.40;0.30;;;;;;;17.95;100.00;95466.16;5092847;28;20463;-60
2022/06/20 00:29:13;;;;;;;0.40;0.20;;;;;;;17.92;100.00;95464.88;5092802;28;21206;-59
2022/06/20 00:31:42;;;;;;;0.40;0.23;;;;;;;16.99;100.00;95474.03;5093097;28;20421;-59
2022/06/20 00:34:13;;;;;;;0.40;0.20;;;;;;;16.79;100.00;95472.66;5093142;28;20461;-59
2022/06/20 00:36:42;;;;;;;0.40;0.30;;;;;;;16.69;100.00;95464.06;5092706;28;20424;-59
2022/06/20 00:39:12;;;;;;;0.40;0.30;;;;;;;17.07;100.00;95454.56;5093067;28;20512;-59
2022/06/20 00:41:43;;;;;;;0.50;0.40;;;;;;;17.35;100.00;95445.25;5092986;28;20871;-59
2022/06/20 00:44:15;;;;;;;0.50;0.33;;;;;;;17.27;100.00;95429.94;5092602;28;20947;-59
2022/06/20 00:46:49;;;;;;;0.40;0.30;;;;;;;17.58;100.00;95449.47;5092761;28;20428;-59
2022/06/20 00:49:21;;;;;;;0.40;0.20;;;;;;;17.67;100.00;95447.63;5092439;28;20507;-59
2022/06/20 00:51:55;;;;;;;0.40;0.20;;;;;;;17.43;100.00;95435.69;5092826;28;20459;-59
2022/06/20 00:54:30;;;;;;;0.40;0.30;;;;;;;17.03;100.00;95443.66;5091992;28;20490;-58
2022/06/20 00:57:07;;;;;;;1.33;0.70;;;;;;;17.29;100.00;95443.81;5092612;28;20851;-58
2022/06/20 00:59:39;;;;;;;0.40;0.30;;;;;;;17.30;100.00;95436.56;5092162;28;20511;-58
2022/06/20 01:02:08;;;;;;;0.40;0.20;;;;;;;17.41;100.00;95441.31;5092131;28;20490;-58
2022/06/20 01:04:42;;;;;;;0.40;0.20;;;;;;;17.29;100.00;95434.97;5092446;28;20432;-58
2022/06/20 01:07:17;;;;;;;0.40;0.30;;;;;;;17.43;100.00;95438.34;5091889;28;20814;-58
2022/06/20 01:09:51;;;;;;;0.67;0.40;;;;;;;17.32;100.00;95437.84;5091554;28;20459;-58
2022/06/20 01:12:22;;;;;;;0.40;0.20;;;;;;;17.34;100.00;95426.78;5092094;28;20452;-58
2022/06/20 01:14:51;;;;;;;0.50;0.40;;;;;;;17.36;100.00;95430.75;5092350;28;20463;-58
2022/06/20 01:17:26;;;;;;;0.40;0.20;;;;;;;17.41;100.00;95432.50;5092310;28;20469;-58
2022/06/20 01:20:00;;;;;;;0.40;0.20;;;;;;;17.45;100.00;95426.22;5091391;28;20475;-58
2022/06/20 01:22:41;;;;;;;0.40;0.30;;;;;;;17.44;100.00;95423.84;5091914;28;20413;-58
2022/06/20 01:25:24;;;;;;;0.40;0.20;;;;;;;17.44;100.00;95435.34;5091886;28;20424;-58
2022/06/20 01:27:57;;;;;;;0.50;0.30;;;;;;;17.37;100.00;95416.25;5091582;28;20456;-58
2022/06/20 01:30:29;;;;;;;0.40;0.20;;;;;;;17.11;100.00;95401.94;5092297;28;20496;-58
2022/06/20 01:32:59;;;;;;;0.40;0.20;;;;;;;17.20;100.00;95420.75;5092082;28;20431;-58
2022/06/20 01:38:16;;;;;;;0.40;0.20;;;;;;;17.17;100.00;95424.84;5095952;28;20431;-58
2022/06/20 01:43:31;;;;;;;0.40;0.23;;;;;;;17.08;100.00;95434.69;5095653;28;20519;-58
2022/06/20 01:46:04;;;;;;;0.50;0.40;;;;;;;17.07;100.00;95435.81;5095710;28;20455;-58
2022/06/20 01:48:34;;;;;;;0.40;0.20;;;;;;;16.98;100.00;95416.22;5095867;28;20813;-58
2022/06/20 01:51:06;;;;;;;0.40;0.30;;;;;;;17.00;100.00;95432.78;5095309;28;20464;-58
2022/06/20 01:53:35;;;;;;;0.40;0.30;;;;;;;16.99;100.00;95431.19;5095438;28;20511;-57
2022/06/20 01:56:05;;;;;;;0.40;0.30;;;;;;;16.97;100.00;95434.19;5095177;28;20566;-58
2022/06/20 01:58:38;;;;;;;0.40;0.30;;;;;;;16.97;100.00;95436.88;5095330;28;20416;-58
2022/06/20 02:01:07;;;;;;;0.40;0.30;;;;;;;16.92;100.00;95428.97;5095221;28;20421;-58
2022/06/20 02:03:40;;;;;;;0.40;0.20;;;;;;;16.90;100.00;95436.47;5095500;28;20420;-57
2022/06/20 02:06:16;;;;;;;0.40;0.20;;;;;;;16.60;100.00;95407.78;5094997;28;20420;-58
2022/06/20 02:08:50;;;;;;;0.40;0.30;;;;;;;16.69;100.00;95431.94;5095052;28;20475;-58
2022/06/20 02:11:23;;;;;;;8.90;0.30;;;;;;;16.75;100.00;95434.19;5095024;28;20554;-57
2022/06/20 02:13:59;;;;;;;0.40;0.30;;;;;;;16.83;100.00;95429.97;5095303;28;20482;-57
2022/06/20 02:16:30;;;;;;;1.00;0.30;;;;;;;16.05;100.00;95300.22;5094936;28;20427;-58
2022/06/20 02:19:03;;;;;;;0.40;0.27;;;;;;;16.65;100.00;95409.53;5094895;28;20422;-58
2022/06/20 02:21:34;;;;;;;0.40;0.20;;;;;;;16.72;100.00;95437.47;5094872;28;20507;-57
2022/06/20 02:24:05;;;;;;;0.40;0.30;;;;;;;16.52;100.00;95437.94;5095128;28;20444;-57
2022/06/20 02:26:37;;;;;;;0.50;0.40;;;;;;;16.61;100.00;95435.34;5094752;28;20499;-57
2022/06/20 02:29:21;;;;;;;0.40;0.20;;;;;;;16.65;100.00;95436.31;5094685;28;21012;-57
2022/06/20 02:31:54;;;;;;;0.40;0.30;;;;;;;16.66;100.00;95437.91;5094882;28;20420;-57
2022/06/20 02:34:23;;;;;;;0.40;0.20;;;;;;;16.52;100.00;95432.59;5094717;28;20427;-58
2022/06/20 02:36:52;;;;;;;0.80;0.40;;;;;;;16.54;100.00;95429.63;5094520;28;20463;-57
2022/06/20 02:39:21;;;;;;;0.40;0.20;;;;;;;16.53;100.00;95423.47;5094580;28;20865;-57
2022/06/20 02:41:57;;;;;;;0.40;0.30;;;;;;;16.16;100.00;95360.41;5094683;28;20428;-58
2022/06/20 02:44:28;;;;;;;0.40;0.30;;;;;;;16.39;100.00;95420.06;5094729;28;20445;-57
2022/06/20 02:46:57;;;;;;;0.40;0.20;;;;;;;16.47;100.00;95414.75;5093249;28;20428;-57
2022/06/20 02:49:30;;;;;;;0.50;0.30;;;;;;;16.05;100.00;95364.38;5094307;28;20866;-57
2022/06/20 02:52:00;;;;;;;0.40;0.20;;;;;;;16.39;100.00;95414.69;5094282;28;20474;-57
2022/06/20 02:54:33;;;;;;;0.40;0.20;;;;;;;16.33;100.00;95408.66;5094251;28;20841;-58
2022/06/20 02:57:12;;;;;;;0.40;0.20;;;;;;;16.36;100.00;95416.09;5094220;28;20499;-57
2022/06/20 02:59:47;;;;;;;0.40;0.27;;;;;;;16.02;100.00;95370.34;5093884;28;20466;-58
2022/06/20 03:02:18;;;;;;;4.03;0.40;;;;;;;15.86;100.00;95348.50;5093971;28;20420;-57
2022/06/20 03:04:47;;;;;;;0.40;0.20;;;;;;;16.32;100.00;95419.66;5093970;28;20423;-58
2022/06/20 03:07:19;;;;;;;0.40;0.30;;;;;;;16.30;100.00;95419.16;5093839;28;20450;-57
2022/06/20 03:09:53;;;;;;;1.67;0.40;;;;;;;16.39;100.00;95417.38;5093945;28;20432;-57
2022/06/20 03:12:22;;;;;;;0.40;0.30;;;;;;;16.35;100.00;95406.47;5094032;28;20471;-57
2022/06/20 03:14:54;;;;;;;2.73;0.50;;;;;;;16.31;100.00;95439.50;5093817;28;20455;-57
2022/06/20 03:17:24;;;;;;;0.40;0.20;;;;;;;16.42;100.00;95412.19;5093766;28;20440;-57
2022/06/20 03:19:55;;;;;;;0.50;0.30;;;;;;;16.39;100.00;95396.75;5093900;28;20444;-59
2022/06/20 03:22:28;;;;;;;0.40;0.20;;;;;;;16.48;100.00;95408.31;5093951;28;20485;-57
2022/06/20 03:25:04;;;;;;;0.40;0.30;;;;;;;16.49;100.00;95409.13;5093665;28;20424;-57
2022/06/20 03:27:36;;;;;;;0.40;0.20;;;;;;;16.47;100.00;95412.06;5093872;28;20482;-58
2022/06/20 03:30:23;;;;;;;0.40;0.30;;;;;;;16.48;100.00;95408.31;5093436;28;20512;-57
2022/06/20 03:32:52;;;;;;;0.40;0.20;;;;;;;16.50;100.00;95400.75;5093406;28;21118;-58
2022/06/20 03:35:21;;;;;;;0.40;0.27;;;;;;;16.57;100.00;95408.38;5093511;28;20531;-58
2022/06/20 03:37:50;;;;;;;0.50;0.40;;;;;;;16.43;100.00;95405.75;5093407;28;20990;-57
2022/06/20 03:40:20;;;;;;;0.40;0.30;;;;;;;15.95;100.00;95327.19;5093502;28;20423;-58
2022/06/20 03:42:48;;;;;;;0.40;0.20;;;;;;;16.52;100.00;95409.31;5094247;28;20421;-57
2022/06/20 03:45:19;;;;;;;13.97;0.50;;;;;;;16.61;100.00;95408.59;5093486;28;20500;-56
2022/06/20 03:47:53;;;;;;;0.50;0.40;;;;;;;16.63;100.00;95409.06;5093100;28;20509;-57
2022/06/20 03:50:28;;;;;;;0.60;0.53;;;;;;;16.55;100.00;95415.13;5093350;28;20535;-57
2022/06/20 03:53:03;;;;;;;0.50;0.40;;;;;;;16.71;100.00;95416.38;5093055;28;20967;-57
2022/06/20 03:55:37;;;;;;;0.40;0.30;;;;;;;16.41;100.00;95412.50;5093020;28;20546;-57
2022/06/20 03:58:09;;;;;;;0.40;0.30;;;;;;;16.38;100.00;95415.78;5092755;28;20424;-58
2022/06/20 04:00:47;;;;;;;0.70;0.50;;;;;;;16.07;100.00;95437.06;5092968;28;20424;-57
2022/06/20 04:03:23;;;;;;;2.93;0.73;;;;;;;16.08;100.00;95405.78;5092805;28;20515;-57
2022/06/20 04:05:58;;;;;;;0.50;0.30;;;;;;;16.21;100.00;95400.41;5092883;28;20515;-57
2022/06/20 04:11:21;;;;;;;0.50;0.30;;;;;;;16.70;100.00;95412.91;5092796;28;20538;-58
2022/06/20 04:13:57;;;;;;;0.40;0.30;;;;;;;16.83;100.00;95409.38;5092351;28;20520;-59
2022/06/20 04:16:35;;;;;;;0.70;0.50;;;;;;;16.95;100.00;95414.16;5092810;28;20511;-59
2022/06/20 04:19:11;;;;;;;0.40;0.30;;;;;;;16.97;100.00;95395.91;5092789;28;20957;-59
2022/06/20 04:21:47;;;;;;;1.03;1.03;;;;;;;17.22;100.00;95410.50;5092666;28;20451;-59
2022/06/20 04:24:23;;;;;;;0.50;0.30;;;;;;;17.30;100.00;95407.09;5092716;28;20912;-59
2022/06/20 04:26:57;;;;;;;0.40;0.30;;;;;;;17.23;100.00;95402.16;5092508;28;20497;-59
2022/06/20 04:29:31;;;;;;;0.40;0.30;;;;;;;17.39;100.00;95407.91;5092750;28;20454;-59
2022/06/20 04:32:05;;;;;;;1.53;0.30;;;;;;;17.13;100.00;95352.34;5092322;28;20547;-59
2022/06/20 04:34:43;;;;;;;0.50;0.40;;;;;;;17.56;100.00;95398.06;5092410;28;20916;-59
2022/06/20 04:37:19;;;;;;;0.50;0.40;;;;;;;17.49;100.00;95403.06;5092309;28;20457;-59
2022/06/20 04:39:56;;;;;;;0.40;0.30;;;;;;;17.50;100.00;95388.56;5092277;28;20515;-59
2022/06/20 04:42:35;;;;;;;0.40;0.30;;;;;;;17.63;100.00;95390.34;5092305;28;20481;-59
2022/06/20 04:45:13;;;;;;;0.40;0.20;;;;;;;18.00;100.00;95390.91;5092308;28;20916;-61
2022/06/20 04:47:48;;;;;;;0.40;0.30;;;;;;;18.32;100.00;95393.13;5092464;28;20480;-61
2022/06/20 04:50:20;;;;;;;0.40;0.30;;;;;;;18.38;100.00;95389.19;5092234;28;20416;-60
2022/06/20 04:52:51;;;;;;;0.40;0.30;;;;;;;18.42;100.00;95388.25;5092061;28;20472;-61
2022/06/20 04:55:25;;;;;;;0.40;0.30;;;;;;;17.70;100.00;95377.31;5091876;28;21220;-61
2022/06/20 04:57:55;;;;;;;0.73;0.70;;;;;;;17.17;100.00;95387.34;5091446;28;20512;-61
2022/06/20 05:00:28;;;;;;;0.40;0.20;;;;;;;12.75;100.00;94653.78;5092016;28;21153;-61
2022/06/20 05:02:59;;;;;;;0.40;0.30;;;;;;;18.03;100.00;95380.34;5092026;28;20863;-61
2022/06/20 05:05:34;;;;;;;0.63;0.63;;;;;;;18.55;100.00;95383.84;5089961;28;20459;-61
2022/06/20 05:08:05;;;;;;;0.40;0.20;;;;;;;18.66;100.00;95377.06;5089387;28;20432;-61
2022/06/20 05:10:40;;;;;;;0.40;0.30;;;;;;;18.78;100.00;95342.28;5089855;28;20452;-61
2022/06/20 05:13:14;;;;;;;0.40;0.30;;;;;;;18.65;100.00;95329.81;5090113;28;20416;-60
2022/06/20 05:15:45;;;;;;;0.40;0.30;;;;;;;19.14;100.00;95363.34;5089987;28;20499;-60
2022/06/20 05:18:23;;;;;;;0.40;0.20;;;;;;;19.37;100.00;95385.41;5090854;28;20417;-61
2022/06/20 05:20:56;;;;;;;0.40;0.30;;;;;;;19.12;99.70;95384.38;5091927;28;20448;-60
2022/06/20 05:23:33;;;;;;;0.80;0.73;;;;;;;19.54;97.96;95378.06;5091976;28;20459;-60
2022/06/20 05:26:04;;;;;;;0.50;0.50;;;;;;;20.04;100.00;95382.66;5091936;28;20500;-60
2022/06/20 05:28:34;;;;;;;0.50;0.40;;;;;;;19.84;100.00;95368.09;5091933;28;20807;-60
2022/06/20 05:31:03;;;;;;;0.50;0.30;;;;;;;20.32;99.31;95385.66;5091567;28;20423;-60
2022/06/20 05:33:39;;;;;;;0.60;0.57;;;;;;;20.21;95.01;95375.25;5091666;28;20424;-60
2022/06/20 05:36:15;;;;;;;0.50;0.30;;;;;;;20.18;95.98;95370.56;5092067;28;20451;-60
2022/06/20 05:38:47;;;;;;;0.50;0.30;;;;;;;19.73;96.29;95366.09;5091625;28;20740;-60
2022/06/20 05:41:17;;;;;;;0.50;0.30;;;;;;;19.93;96.37;95374.22;5091987;28;20452;-60
2022/06/20 05:43:46;;;;;;;0.57;0.50;;;;;;;19.28;99.96;95322.81;5092062;28;20443;-60
2022/06/20 05:46:23;;;;;;;0.47;0.30;;;;;;;19.99;97.08;95351.38;5092101;28;20429;-60
2022/06/20 05:48:56;;;;;;;0.40;0.30;;;;;;;19.93;95.91;95359.97;5091563;28;20897;-60
2022/06/20 05:51:28;;;;;;;0.60;0.43;;;;;;;19.63;100.00;95290.06;5091405;28;21061;-60
2022/06/20 05:54:01;;;;;;;0.53;0.30;;;;;;;20.75;100.00;95341.09;5093977;28;20420;-61
2022/06/20 05:56:34;;;;;;;0.50;0.30;;;;;;;20.77;90.67;95338.84;5091789;28;20475;-61
2022/06/20 05:59:05;;;;;;;0.50;0.50;;;;;;;20.20;88.34;95344.09;5091728;28;20452;-61
2022/06/20 06:01:36;;;;;;;0.70;0.70;;;;;;;21.04;93.49;95342.84;5091896;28;20445;-62
2022/06/20 06:04:17;;;;;;;0.40;0.30;;;;;;;20.95;90.56;95320.56;5091578;28;20485;-62
2022/06/20 06:06:50;;;;;;;0.50;0.50;;;;;;;20.77;87.96;95346.91;5091552;28;20430;-63
2022/06/20 06:09:22;;;;;;;0.50;0.40;;;;;;;20.47;96.20;95334.69;5091177;28;20556;-64
2022/06/20 06:11:58;;;;;;;0.53;0.40;;;;;;;20.37;94.14;95337.00;5091683;28;20464;-64
2022/06/20 06:14:32;;;;;;;0.40;0.30;;;;;;;21.19;85.79;95330.66;5091368;28;20919;-64
2022/06/20 06:17:08;;;;;;;0.40;0.30;;;;;;;21.44;89.82;95322.25;5091433;28;20452;-63
2022/06/20 06:20:02;;;;;;;0.67;0.67;;;;;;;21.46;82.18;95313.81;5092487;28;20424;-63
2022/06/20 06:22:35;;;;;;;0.40;0.20;;;;;;;21.67;84.92;95316.38;5095342;28;20420;-63
2022/06/20 06:25:18;;;;;;;0.40;0.30;;;;;;;21.93;83.20;95317.63;5095240;28;20451;-63
2022/06/20 06:27:49;;;;;;;0.70;0.40;;;;;;;22.07;78.69;95282.13;5094887;28;20421;-63
2022/06/20 06:30:21;;;;;;;0.50;0.40;;;;;;;22.91;73.20;95299.09;5095008;28;20987;-63
2022/06/20 06:32:55;;;;;;;0.60;0.53;;;;;;;21.52;74.86;95283.59;5094704;28;20551;-63
2022/06/20 06:35:33;;;;;;;0.50;0.40;;;;;;;21.82;81.97;95296.78;5095138;28;20594;-63
2022/06/20 06:38:04;;;;;;;1.53;0.30;;;;;;;22.12;79.39;95287.28;5094588;28;20928;-63
2022/06/20 06:40:38;;;;;;;0.40;0.33;;;;;;;22.31;75.31;95290.16;5094682;28;20448;-62
2022/06/20 06:43:17;;;;;;;0.50;0.40;;;;;;;23.01;72.53;95285.88;5094855;28;20419;-61
2022/06/20 06:45:48;;;;;;;0.40;0.30;;;;;;;22.77;66.52;95278.69;5094449;28;20511;-61
2022/06/20 06:48:21;;;;;;;0.40;0.33;;;;;;;22.99;68.70;95274.63;5094778;28;20823;-61
2022/06/20 06:50:55;;;;;;;0.40;0.30;;;;;;;23.49;65.13;95244.16;5094523;28;20448;-62
2022/06/20 06:53:29;;;;;;;0.70;0.33;;;;;;;23.51;60.93;95270.84;5094361;28;20551;-61
2022/06/20 06:56:04;;;;;;;0.43;0.37;;;;;;;24.17;60.82;95268.84;5094359;28;20553;-61
2022/06/20 06:58:37;;;;;;;0.50;0.40;;;;;;;24.94;60.11;95252.50;5094650;28;20494;-62
2022/06/20 07:01:11;;;;;;;2.70;1.47;;;;;;;24.61;62.86;95266.59;5094580;28;20421;-62
2022/06/20 07:03:45;;;;;;;1.90;0.40;;;;;;;24.83;59.90;95249.59;5094142;28;21226;-62
2022/06/20 07:06:22;;;;;;;1.67;0.40;;;;;;;25.22;61.60;95248.31;5094206;28;20424;-61
2022/06/20 07:09:12;;;;;;;0.50;0.40;;;;;;;24.07;62.90;95260.47;5094222;28;20935;-61
2022/06/20 07:11:47;;;;;;;0.50;0.47;;;;;;;23.74;66.58;95263.63;5094407;28;20559;-64
2022/06/20 07:14:20;;;;;;;0.53;0.53;;;;;;;23.97;63.25;95257.19;5094412;28;20475;-64
2022/06/20 07:17:03;;;;;;;0.63;0.50;;;;;;;24.61;60.33;95256.56;5094210;28;20473;-64
2022/06/20 07:19:33;;;;;;;0.40;0.27;;;;;;;24.67;56.84;95243.47;5094216;28;20539;-62
2022/06/20 07:22:03;;;;;;;0.40;0.30;;;;;;;25.35;57.41;95243.47;5093808;28;20421;-62
2022/06/20 07:24:35;;;;;;;0.50;0.43;;;;;;;25.15;52.76;95248.19;5094391;28;20474;-62
2022/06/20 07:27:10;;;;;;;0.40;0.30;;;;;;;25.47;59.00;95245.25;5094261;28;20420;-61
2022/06/20 07:29:47;;;;;;;0.50;0.37;;;;;;;26.17;48.04;95229.13;5093861;28;20507;-61
2022/06/20 07:32:20;;;;;;;0.40;0.40;;;;;;;25.66;47.93;95242.41;5093506;28;20468;-60
2022/06/20 07:34:52;;;;;;;0.53;0.50;;;;;;;26.17;52.18;95237.28;5093980;28;20424;-60
2022/06/20 07:37:27;;;;;;;0.50;0.40;;;;;;;25.62;50.74;95242.38;5093697;28;20433;-60
2022/06/20 07:40:00;;;;;;;0.40;0.30;;;;;;;25.85;51.15;95236.88;5093721;28;20513;-59
2022/06/20 07:42:34;;;;;;;0.40;0.40;;;;;;;25.62;51.37;95234.22;5093898;28;20553;-59
2022/06/20 07:45:08;;;;;;;0.40;0.30;;;;;;;25.06;53.29;95230.63;5093447;28;20459;-59
2022/06/20 07:47:43;;;;;;;0.33;0.23;;;;;;;25.30;50.93;95234.88;5093986;28;20499;-58
2022/06/20 07:50:18;;;;;;;0.40;0.30;;;;;;;26.50;50.76;95223.69;5093500;28;20482;-57
2022/06/20 07:53:13;;;;;;;0.50;0.40;;;;;;;27.02;44.88;95214.47;5093214;28;20495;-58
2022/06/20 07:55:46;;;;;;;0.50;0.30;;;;;;;27.98;44.94;95207.75;5093106;28;20504;-58
2022/06/20 07:58:22;;;;;;;0.50;0.40;;;;;;;27.41;43.33;95207.44;5093101;28;20420;-58
2022/06/20 08:00:52;;;;;;;0.40;0.30;;;;;;;27.71;41.35;95197.13;5093087;28;20532;-57
2022/06/20 08:03:26;;;;;;;0.40;0.30;;;;;;;28.05;43.35;95191.47;5093051;28;20471;-56
2022/06/20 08:05:59;;;;;;;0.40;0.30;;;;;;;27.45;43.86;95199.31;5093266;28;20440;-65
2022/06/20 08:08:37;;;;;;;0.40;0.40;;;;;;;27.26;43.12;95126.81;5094425;28;20424;-65
2022/06/20 08:11:12;;;;;;;0.40;0.30;;;;;;;27.62;42.26;95098.66;5093579;28;21145;-59
2022/06/20 08:13:48;;;;;;;0.60;0.40;;;;;;;27.89;43.89;95182.78;5092824;28;20547;-57
2022/06/20 08:16:22;;;;;;;0.43;0.30;;;;;;;28.27;45.86;95185.69;5092855;28;20424;-58
2022/06/20 08:18:51;;;;;;;0.50;0.40;;;;;;;28.44;42.07;95186.91;5093060;28;20636;-58
2022/06/20 08:21:26;;;;;;;0.40;0.33;;;;;;;28.19;41.08;95150.63;5092078;28;20428;-57
2022/06/20 08:24:02;;;;;;;0.40;0.30;;;;;;;28.31;41.74;95177.50;5092652;28;20424;-59
2022/06/20 08:26:33;;;;;;;0.40;0.30;;;;;;;28.54;41.23;95180.69;5092410;28;20892;-58
2022/06/20 08:29:07;;;;;;;0.50;0.30;;;;;;;27.98;39.03;95030.66;5092575;28;20519;-57
2022/06/20 08:31:41;;;;;;;0.40;0.30;;;;;;;28.02;40.38;95173.94;5092540;28;20424;-57
2022/06/20 08:34:15;;;;;;;0.40;0.30;;;;;;;28.02;40.81;95085.97;5092468;28;20464;-58
2022/06/20 08:36:50;;;;;;;0.30;0.30;;;;;;;29.64;40.71;95159.66;5092821;28;20420;-56
2022/06/20 08:39:26;;;;;;;0.50;0.50;;;;;;;29.28;36.50;95109.00;5092614;28;20419;-56
2022/06/20 08:42:28;;;;;;;0.40;0.30;;;;;;;29.41;36.34;95156.56;5092660;28;20489;-57
2022/06/20 08:45:17;;;;;;;0.43;0.37;;;;;;;29.13;34.94;95143.72;5091414;28;20420;-57
2022/06/20 08:48:20;;;;;;;0.40;0.30;;;;;;;29.82;35.58;95157.66;5091663;28;20448;-56
2022/06/20 08:51:18;;;;;;;0.30;0.30;;;;;;;29.70;35.11;95152.63;5092085;28;20474;-56
2022/06/20 08:54:29;;;;;;;0.40;0.30;;;;;;;30.30;33.47;95143.38;5091462;28;20661;-55
2022/06/20 08:57:04;;;;;;;0.30;0.30;;;;;;;30.22;34.46;95084.44;5091859;28;20440;-55
2022/06/20 08:59:59;;;;;;;0.43;0.30;;;;;;;30.27;34.56;95100.44;5092164;28;20452;-56
2022/06/20 09:02:49;;;;;;;0.40;0.30;;;;;;;29.91;33.91;95108.03;5092106;28;20489;-55
2022/06/20 09:05:54;;;;;;;1.10;0.40;;;;;;;30.01;36.98;95123.59;5092231;28;20436;-56
2022/06/20 09:08:52;;;;;;;0.40;0.40;;;;;;;30.46;35.75;95106.19;5056044;28;20439;-55
2022/06/20 09:11:40;;;;;;;0.47;0.30;;;;;;;30.58;35.31;95116.66;5091977;28;20507;-55
2022/06/20 09:14:47;;;;;;;1.60;0.50;;;;;;;30.75;34.13;95085.66;5091738;28;20529;-55
2022/06/20 09:17:23;;;;;;;0.40;0.30;;;;;;;29.64;32.82;95118.69;5091896;28;20451;-56
2022/06/20 09:20:10;;;;;;;0.60;0.53;;;;;;;29.87;31.98;95112.75;5091677;28;20431;-56
2022/06/20 09:22:50;;;;;;;0.40;0.30;;;;;;;30.97;31.65;95112.88;5091871;28;20423;-54
2022/06/20 09:25:33;;;;;;;0.37;0.27;;;;;;;30.84;31.22;95111.78;5091436;28;20415;-54
2022/06/20 09:28:21;;;;;;;0.40;0.30;;;;;;;30.90;31.68;95107.41;5092052;28;20515;-60
2022/06/20 09:31:00;;;;;;;0.40;0.30;;;;;;;30.41;31.91;95097.66;5092043;28;20428;-65
2022/06/20 09:33:56;;;;;;;0.30;0.30;;;;;;;31.15;33.72;95100.56;5092212;28;20538;-73
2022/06/20 09:36:44;;;;;;;0.50;0.40;;;;;;;31.71;33.30;95087.47;5090929;28;21000;-75
2022/06/20 09:39:35;;;;;;;0.40;0.30;;;;;;;31.29;33.51;95073.06;5092457;28;20526;-74
2022/06/20 09:42:16;;;;;;;0.40;0.30;;;;;;;30.96;32.10;95095.66;5092673;28;20428;-75
2022/06/20 09:44:56;;;;;;;0.40;0.30;;;;;;;31.63;34.10;95084.03;5091798;28;20432;-74
2022/06/20 09:47:33;;;;;;;0.50;0.50;;;;;;;31.97;30.99;95018.22;5092101;28;20436;-74
2022/06/20 09:50:21;;;;;;;0.40;0.30;;;;;;;31.85;29.82;95077.09;5094543;28;20424;-73
2022/06/20 09:53:03;;;;;;;0.40;0.30;;;;;;;32.12;30.29;95074.44;5091606;28;20439;-74
2022/06/20 09:55:38;;;;;;;0.40;0.30;;;;;;;32.23;31.20;95072.28;5092221;28;20550;-74
2022/06/20 09:58:14;;;;;;;0.40;0.40;;;;;;;31.30;30.50;95071.06;5095299;28;20904;-57
2022/06/20 10:00:52;;;;;;;0.40;0.30;;;;;;;32.07;31.51;95044.72;5095166;28;20965;-57
2022/06/20 10:03:30;;;;;;;0.50;0.47;;;;;;;32.20;32.30;95062.16;5095014;28;20451;-57
2022/06/20 10:06:07;;;;;;;0.40;0.30;;;;;;;32.24;28.92;95064.84;5094978;28;20423;-57
2022/06/20 10:08:44;;;;;;;0.47;0.40;;;;;;;31.59;31.97;94995.63;5094611;28;20458;-57
2022/06/20 10:11:19;;;;;;;0.50;0.30;;;;;;;31.90;33.44;95001.88;5094979;28;20461;-57
2022/06/20 10:13:55;;;;;;;0.40;0.30;;;;;;;31.94;32.63;95054.66;5094869;28;20586;-58
2022/06/20 10:16:34;;;;;;;0.50;0.40;;;;;;;30.58;35.04;95050.22;5094853;28;20511;-58
2022/06/20 10:19:09;;;;;;;0.40;0.30;;;;;;;31.01;35.15;95050.66;5094829;28;20460;-57
2022/06/20 10:21:45;;;;;;;0.30;0.30;;;;;;;31.14;35.35;95041.53;5094559;28;20518;-57
2022/06/20 10:24:33;;;;;;;1.00;0.50;;;;;;;31.32;34.16;95044.06;5094630;28;20915;-57
2022/06/20 10:27:27;;;;;;;0.40;0.30;;;;;;;31.60;35.48;95023.81;5094567;28;21010;-57
2022/06/20 10:30:08;;;;;;;0.80;0.50;;;;;;;30.88;33.23;94979.19;5094520;28;20769;-58
2022/06/20 10:32:56;;;;;;;0.60;0.60;;;;;;;31.44;33.70;95043.53;5094270;28;20506;-57
2022/06/20 10:35:37;;;;;;;0.60;0.50;;;;;;;31.87;32.64;95024.63;5094359;28;20459;-58
2022/06/20 10:38:11;;;;;;;0.40;0.30;;;;;;;33.18;29.55;95023.31;5094385;28;20475;-58
2022/06/20 10:40:51;;;;;;;0.50;0.50;;;;;;;32.66;29.89;94946.22;5094727;28;20507;-59
2022/06/20 10:43:31;;;;;;;0.40;0.30;;;;;;;32.70;29.72;95021.03;5094135;28;20854;-66
2022/06/20 10:46:06;;;;;;;0.40;0.30;;;;;;;32.28;29.66;95017.00;5094570;28;20451;-58
2022/06/20 10:48:51;;;;;;;0.40;0.30;;;;;;;31.72;29.53;94985.66;5093482;28;20939;-59
2022/06/20 10:51:31;;;;;;;0.50;0.50;;;;;;;33.16;28.48;95012.00;5094193;28;20420;-58
2022/06/20 10:54:09;;;;;;;0.30;0.30;;;;;;;33.84;28.68;95001.97;5094300;28;20491;-58
2022/06/20 10:56:47;;;;;;;0.30;0.30;;;;;;;32.81;30.70;95001.63;5094247;28;20870;-59
2022/06/20 10:59:32;;;;;;;0.60;0.30;;;;;;;32.98;29.94;95003.28;5094354;28;20408;-59
2022/06/20 11:02:13;;;;;;;0.40;0.30;;;;;;;31.84;27.41;95004.28;5093855;28;20459;-59
2022/06/20 11:05:01;;;;;;;0.40;0.30;;;;;;;32.53;27.42;94989.97;5094204;28;20444;-60
2022/06/20 11:07:38;;;;;;;0.50;0.40;;;;;;;32.36;25.26;94992.97;5092959;28;20781;-59
2022/06/20 11:10:20;;;;;;;0.40;0.37;;;;;;;32.41;26.82;94996.00;5093606;28;20428;-59
2022/06/20 11:12:57;;;;;;;0.97;0.97;;;;;;;32.21;25.54;94995.13;5093511;28;20464;-59
2022/06/20 11:15:36;;;;;;;0.40;0.33;;;;;;;32.21;26.08;94992.41;5093315;28;20461;-59
2022/06/20 11:18:18;;;;;;;0.30;0.30;;;;;;;32.36;29.10;94990.22;5093550;28;20511;-59
2022/06/20 11:20:53;;;;;;;0.40;0.30;;;;;;;32.94;29.28;94988.84;5093345;28;20419;-59
2022/06/20 11:23:30;;;;;;;0.40;0.30;;;;;;;31.45;30.55;94986.81;5093613;28;20874;-59
2022/06/20 11:26:07;;;;;;;0.33;0.30;;;;;;;31.80;31.23;94984.34;5093230;28;20845;-60
2022/06/20 11:29:10;;;;;;;0.40;0.30;;;;;;;31.41;31.37;94850.66;5093410;28;20453;-60
2022/06/20 11:31:50;;;;;;;0.90;0.90;;;;;;;31.78;30.52;94984.00;5090966;28;20949;-60
2022/06/20 11:34:50;;;;;;;0.40;0.30;;;;;;;32.15;31.51;94968.63;5092972;28;20502;-60
2022/06/20 11:37:33;;;;;;;0.40;0.40;;;;;;;32.26;31.10;94917.13;5092924;28;20796;-60
2022/06/20 11:40:16;;;;;;;0.50;0.30;;;;;;;33.14;29.82;94970.44;5093220;28;20871;-60
2022/06/20 11:43:04;;;;;;;5.10;3.60;;;;;;;34.21;29.21;94975.22;5092251;28;20929;-60
2022/06/20 11:46:00;;;;;;;0.50;0.47;;;;;;;33.91;30.32;94967.25;5092841;28;20455;-59
2022/06/20 11:48:41;;;;;;;0.40;0.30;;;;;;;34.09;29.55;94964.91;5092811;28;20425;-60
2022/06/20 11:51:19;;;;;;;0.30;0.20;;;;;;;34.65;27.22;94960.00;5092923;28;20460;-59
2022/06/20 11:54:11;;;;;;;0.40;0.30;;;;;;;33.47;27.92;94944.63;5092497;28;20520;-59
2022/06/20 11:56:49;;;;;;;0.40;0.30;;;;;;;33.05;29.57;94949.03;5092566;28;20449;-59
2022/06/20 11:59:30;;;;;;;2.10;0.47;;;;;;;32.91;28.47;94943.00;5092483;28;20433;-59
2022/06/20 12:02:06;;;;;;;0.40;0.30;;;;;;;33.34;27.07;94941.00;5092883;28;20460;-59
2022/06/20 12:04:39;;;;;;;0.40;0.30;;;;;;;34.11;27.46;94949.53;5092305;28;20504;-59
2022/06/20 12:07:34;;;;;;;0.50;0.30;;;;;;;33.16;28.13;94927.63;5092727;28;20809;-59
2022/06/20 12:10:26;;;;;;;0.40;0.30;;;;;;;33.36;28.03;94900.13;5092559;28;20457;-60
2022/06/20 12:13:00;;;;;;;0.40;0.30;;;;;;;33.06;28.33;94949.81;5092656;28;20510;-58
2022/06/20 12:15:43;;;;;;;0.83;0.73;;;;;;;31.87;28.46;94868.38;5091973;28;20499;-59
2022/06/20 12:18:41;;;;;;;0.30;0.23;;;;;;;31.83;30.04;94904.06;5092067;28;20956;-58
2022/06/20 12:24:08;;;;;;;0.40;0.30;;;;;;;32.60;27.34;94934.94;5092255;28;20424;-59